Time;durP1;ratioP1;P1;durP2;ratioP2;P2;SDS_P1;SDS_P2;PMS_P1;PMS_P2;Temp;Humidity;BMP_temperature;BMP_pressure;BME280_temperature;BME280_humidity;BME280_pressure;Samples;Min_cycle;Max_cycle;Signal;HPM_P1;HPM_P2
2023/09/03 00:00:48;;;;;;;13.30;8.02;;;;;;;16.64;100.00;101552.00;5036655;28;20141;-60
2023/09/03 00:03:15;;;;;;;11.65;8.38;;;;;;;16.64;100.00;101560.81;5041522;28;20085;-61
2023/09/03 00:05:56;;;;;;;9.82;8.73;;;;;;;16.65;100.00;101551.03;5039396;28;20504;-61
2023/09/03 00:08:24;;;;;;;15.73;9.38;;;;;;;16.64;100.00;101552.84;5038590;28;20110;-61
2023/09/03 00:10:52;;;;;;;11.77;8.98;;;;;;;16.65;100.00;101553.69;5037475;28;20141;-61
2023/09/03 00:13:20;;;;;;;12.10;8.65;;;;;;;16.66;100.00;101553.59;5036226;28;20665;-63
2023/09/03 00:15:47;;;;;;;13.80;7.80;;;;;;;16.66;100.00;101550.94;5031494;28;20053;-62
2023/09/03 00:18:15;;;;;;;12.80;7.35;;;;;;;16.69;100.00;101549.84;5038956;28;20139;-60
2023/09/03 00:21:00;;;;;;;9.30;6.75;;;;;;;16.70;100.00;101552.41;5038729;28;20081;-60
2023/09/03 00:23:28;;;;;;;10.07;7.82;;;;;;;16.70;100.00;101547.09;5038401;28;20053;-61
2023/09/03 00:25:58;;;;;;;12.23;7.85;;;;;;;16.71;100.00;101554.13;5035623;28;20132;-61
2023/09/03 00:28:26;;;;;;;14.25;7.75;;;;;;;16.71;100.00;101551.47;5029612;28;20069;-61
2023/09/03 00:31:10;;;;;;;14.20;7.80;;;;;;;16.74;100.00;101557.53;5031530;28;20133;-60
2023/09/03 00:33:37;;;;;;;11.45;8.35;;;;;;;16.71;100.00;101559.44;5044963;28;20077;-61
2023/09/03 00:36:06;;;;;;;15.32;8.75;;;;;;;16.74;100.00;101562.88;5034079;28;20121;-62
2023/09/03 00:38:33;;;;;;;10.90;7.28;;;;;;;16.75;100.00;101568.09;5045974;28;20082;-61
2023/09/03 00:41:04;;;;;;;11.82;7.88;;;;;;;16.77;100.00;101565.31;5037034;28;20680;-65
2023/09/03 00:43:32;;;;;;;15.85;8.80;;;;;;;16.78;100.00;101554.56;5039916;28;20069;-59
2023/09/03 00:46:04;;;;;;;11.32;8.63;;;;;;;16.79;100.00;101558.91;5022370;28;20077;-61
2023/09/03 00:48:32;;;;;;;9.55;7.60;;;;;;;16.80;100.00;101557.97;5038927;28;20072;-62
2023/09/03 00:51:02;;;;;;;12.93;8.15;;;;;;;16.81;100.00;101557.00;5031666;28;20165;-62
2023/09/03 00:53:33;;;;;;;10.25;7.95;;;;;;;16.84;100.00;101555.94;5029270;28;20195;-63
2023/09/03 00:56:00;;;;;;;9.30;7.65;;;;;;;16.84;100.00;101553.28;5032229;28;20534;-61
2023/09/03 00:58:28;;;;;;;10.85;8.43;;;;;;;16.83;100.00;101565.72;5028480;28;20068;-62
2023/09/03 01:00:56;;;;;;;11.95;9.27;;;;;;;16.83;100.00;101554.25;5032811;28;20100;-61
2023/09/03 01:03:26;;;;;;;9.77;7.70;;;;;;;16.85;100.00;101555.00;5025158;28;20045;-62
2023/09/03 01:05:53;;;;;;;10.73;7.47;;;;;;;16.84;100.00;101559.47;5033725;28;20084;-61
2023/09/03 01:08:21;;;;;;;11.30;6.97;;;;;;;16.87;100.00;101553.06;5035362;28;20476;-60
2023/09/03 01:11:18;;;;;;;12.38;7.38;;;;;;;16.87;100.00;101553.91;5031706;28;20136;-58
2023/09/03 01:14:04;;;;;;;9.23;7.35;;;;;;;16.86;100.00;101559.34;5029694;28;20144;-58
2023/09/03 01:16:42;;;;;;;13.80;8.52;;;;;;;16.82;100.00;101550.72;5032536;28;20049;-61
2023/09/03 01:19:24;;;;;;;9.00;7.82;;;;;;;16.81;100.00;101551.69;5031546;28;20115;-61
2023/09/03 01:22:14;;;;;;;10.52;7.40;;;;;;;16.82;100.00;101555.22;5025710;28;20095;-62
2023/09/03 01:24:51;;;;;;;9.02;6.70;;;;;;;16.82;100.00;101558.72;5021179;28;20053;-62
2023/09/03 01:27:36;;;;;;;8.93;7.18;;;;;;;16.84;100.00;101555.94;5028788;28;20072;-62
2023/09/03 01:30:03;;;;;;;12.93;7.82;;;;;;;16.81;100.00;101564.16;5034509;28;20139;-61
2023/09/03 01:32:31;;;;;;;8.07;7.25;;;;;;;16.79;100.00;101566.03;5025994;28;20104;-60
2023/09/03 01:34:59;;;;;;;9.55;7.43;;;;;;;16.79;100.00;101563.38;5032682;28;20517;-61
2023/09/03 01:37:27;;;;;;;7.63;6.68;;;;;;;16.79;100.00;101558.91;5025864;28;20078;-61
2023/09/03 01:39:54;;;;;;;11.70;7.15;;;;;;;16.80;100.00;101565.13;5033088;28;20054;-63
2023/09/03 01:42:21;;;;;;;19.88;6.82;;;;;;;16.79;100.00;101558.06;5034851;28;20103;-60
2023/09/03 01:44:48;;;;;;;12.90;7.93;;;;;;;16.78;100.00;101554.56;5034776;28;20141;-60
2023/09/03 01:47:35;;;;;;;10.65;7.40;;;;;;;16.77;100.00;101558.19;5036841;28;20429;-61
2023/09/03 01:50:24;;;;;;;13.40;7.60;;;;;;;16.74;100.00;101553.06;5035995;28;20053;-61
2023/09/03 01:53:09;;;;;;;11.93;7.88;;;;;;;16.71;100.00;101551.47;5038021;28;20060;-61
2023/09/03 01:55:41;;;;;;;9.07;8.15;;;;;;;16.70;100.00;101562.19;5007814;28;20116;-60
2023/09/03 01:58:09;;;;;;;11.85;7.82;;;;;;;16.67;100.00;101560.63;5031786;28;20527;-61
2023/09/03 02:00:38;;;;;;;9.35;7.88;;;;;;;16.65;100.00;101554.53;5036839;28;20068;-59
2023/09/03 02:03:05;;;;;;;7.95;6.75;;;;;;;16.63;100.00;101547.63;5037091;28;20076;-61
2023/09/03 02:05:33;;;;;;;11.75;7.47;;;;;;;16.58;100.00;101545.31;5036151;28;20049;-60
2023/09/03 02:08:00;;;;;;;7.90;7.05;;;;;;;16.54;100.00;101545.63;5042611;28;20691;-61
2023/09/03 02:10:28;;;;;;;12.13;6.90;;;;;;;16.47;100.00;101547.84;5039552;28;20783;-61
2023/09/03 02:12:55;;;;;;;12.50;8.95;;;;;;;16.43;100.00;101552.50;5027207;28;20069;-61
2023/09/03 02:15:22;;;;;;;13.18;7.68;;;;;;;16.37;100.00;101546.78;5032108;28;20073;-61
2023/09/03 02:17:49;;;;;;;11.10;7.85;;;;;;;16.33;100.00;101559.41;5030799;28;20460;-60
2023/09/03 02:20:17;;;;;;;10.60;8.60;;;;;;;16.30;100.00;101562.31;5038842;28;20049;-61
2023/09/03 02:22:44;;;;;;;10.43;7.63;;;;;;;16.27;100.00;101562.50;5029454;28;20115;-62
2023/09/03 02:25:11;;;;;;;10.20;7.57;;;;;;;16.25;100.00;101547.59;5032547;28;20779;-60
2023/09/03 02:27:39;;;;;;;9.25;7.72;;;;;;;16.19;100.00;101543.56;5022414;28;20133;-60
2023/09/03 02:30:07;;;;;;;10.82;7.40;;;;;;;16.16;100.00;101555.25;5026389;28;20060;-61
2023/09/03 02:32:34;;;;;;;10.13;8.55;;;;;;;16.13;100.00;101544.84;5032023;28;20127;-61
2023/09/03 02:35:01;;;;;;;10.82;7.80;;;;;;;16.12;100.00;101552.88;5031961;28;20080;-61
2023/09/03 02:37:28;;;;;;;11.30;8.68;;;;;;;16.11;100.00;101556.50;5022680;28;20501;-61
2023/09/03 02:39:56;;;;;;;10.27;8.70;;;;;;;16.05;100.00;101563.09;5029722;28;20084;-61
2023/09/03 02:42:24;;;;;;;10.02;7.78;;;;;;;16.06;100.00;101559.47;5029929;28;20085;-61
2023/09/03 02:44:51;;;;;;;15.38;8.35;;;;;;;16.03;100.00;101562.38;5027566;28;20045;-62
2023/09/03 02:47:19;;;;;;;9.48;7.22;;;;;;;16.02;100.00;101559.78;5041362;28;20100;-63
2023/09/03 02:49:46;;;;;;;10.80;8.65;;;;;;;16.00;100.00;101559.91;5053014;28;20057;-63
2023/09/03 02:52:14;;;;;;;11.85;7.93;;;;;;;15.98;100.00;101553.81;5058444;28;20271;-63
2023/09/03 02:54:42;;;;;;;8.73;7.88;;;;;;;15.94;100.00;101542.56;5054339;28;20072;-61
2023/09/03 02:57:09;;;;;;;9.77;7.28;;;;;;;15.92;100.00;101544.47;5040858;28;20525;-61
2023/09/03 02:59:36;;;;;;;10.60;7.97;;;;;;;15.90;100.00;101541.06;5036267;28;20060;-60
2023/09/03 03:02:03;;;;;;;9.68;7.97;;;;;;;15.84;100.00;101536.16;5029933;28;20132;-60
2023/09/03 03:04:30;;;;;;;13.43;8.20;;;;;;;15.82;100.00;101543.38;5021110;28;20048;-59
2023/09/03 03:06:58;;;;;;;12.95;8.98;;;;;;;15.80;100.00;101547.94;5031750;28;20057;-63
2023/09/03 03:09:26;;;;;;;11.90;7.45;;;;;;;15.77;100.00;101547.31;5043883;28;20056;-61
2023/09/03 03:11:53;;;;;;;12.32;8.30;;;;;;;15.76;100.00;101551.75;5037166;28;20316;-60
2023/09/03 03:14:20;;;;;;;12.98;7.75;;;;;;;15.75;100.00;101534.09;5038086;28;20148;-61
2023/09/03 03:16:48;;;;;;;14.18;8.30;;;;;;;15.73;100.00;101541.34;5039176;28;20057;-62
2023/09/03 03:19:15;;;;;;;8.82;7.20;;;;;;;15.70;100.00;101545.03;5049468;28;20657;-61
2023/09/03 03:21:42;;;;;;;10.27;8.38;;;;;;;15.69;100.00;101546.00;5032862;28;20048;-61
2023/09/03 03:24:09;;;;;;;9.25;7.95;;;;;;;15.67;100.00;101549.72;5034663;28;20467;-62
2023/09/03 03:26:37;;;;;;;9.32;8.07;;;;;;;15.70;100.00;101557.47;5039918;28;20624;-61
2023/09/03 03:29:07;;;;;;;13.38;8.32;;;;;;;15.65;100.00;101557.75;5030465;28;20137;-62
2023/09/03 03:31:34;;;;;;;12.07;7.80;;;;;;;15.64;100.00;101556.06;5033837;28;20132;-59
2023/09/03 03:34:02;;;;;;;12.35;7.93;;;;;;;15.61;100.00;101566.84;5036147;28;20732;-60
2023/09/03 03:36:29;;;;;;;12.90;7.97;;;;;;;15.61;100.00;101579.25;5027007;28;20706;-61
2023/09/03 03:38:57;;;;;;;13.63;7.28;;;;;;;15.60;100.00;101577.56;5028498;28;20048;-60
2023/09/03 03:41:24;;;;;;;11.00;8.05;;;;;;;15.60;100.00;101578.41;5039366;28;20464;-62
2023/09/03 03:43:52;;;;;;;11.52;7.88;;;;;;;15.60;100.00;101573.09;5028427;28;20260;-61
2023/09/03 03:46:20;;;;;;;9.13;7.57;;;;;;;15.56;100.00;101574.25;5035751;28;20266;-60
2023/09/03 03:48:48;;;;;;;11.82;8.13;;;;;;;15.57;100.00;101575.94;5036255;28;20207;-59
2023/09/03 03:51:15;;;;;;;14.48;8.25;;;;;;;15.55;100.00;101591.13;5039664;28;20057;-62
2023/09/03 03:53:43;;;;;;;9.65;8.20;;;;;;;15.52;100.00;101586.00;5029702;28;20127;-60
2023/09/03 03:56:11;;;;;;;11.65;8.10;;;;;;;15.51;100.00;101580.81;5030205;28;20144;-60
2023/09/03 03:58:40;;;;;;;7.20;6.50;;;;;;;15.50;100.00;101579.97;5027098;28;20057;-61
2023/09/03 04:01:12;;;;;;;11.65;7.95;;;;;;;15.47;100.00;101582.81;5027945;28;20072;-61
2023/09/03 04:03:40;;;;;;;9.57;8.02;;;;;;;15.40;100.00;101578.84;5029622;28;20114;-60
2023/09/03 04:06:08;;;;;;;8.23;7.13;;;;;;;15.39;100.00;101577.97;5038213;28;20148;-62
2023/09/03 04:08:37;;;;;;;11.52;7.60;;;;;;;15.38;100.00;101575.44;5022053;28;20136;-62
2023/09/03 04:11:07;;;;;;;8.98;7.07;;;;;;;15.37;100.00;101571.09;5023793;28;20198;-61
2023/09/03 04:13:35;;;;;;;9.48;7.38;;;;;;;15.34;100.00;101579.22;5031091;28;20072;-62
2023/09/03 04:16:10;;;;;;;15.23;7.63;;;;;;;15.24;100.00;101586.09;5025190;28;20132;-60
2023/09/03 04:18:37;;;;;;;10.77;7.63;;;;;;;15.18;100.00;101587.31;5025344;28;20059;-61
2023/09/03 04:21:05;;;;;;;9.80;7.47;;;;;;;15.18;100.00;101587.31;5025198;28;20168;-60
2023/09/03 04:23:32;;;;;;;7.38;6.53;;;;;;;15.17;100.00;101596.22;5030208;28;20136;-61
2023/09/03 04:26:00;;;;;;;8.48;7.25;;;;;;;15.16;100.00;101607.78;5012326;28;20062;-62
2023/09/03 04:28:27;;;;;;;8.10;6.68;;;;;;;15.12;100.00;101612.41;5006499;28;20065;-60
2023/09/03 04:31:03;;;;;;;8.55;6.53;;;;;;;15.07;100.00;101606.53;5016959;28;20152;-61
2023/09/03 04:33:31;;;;;;;9.93;7.30;;;;;;;15.05;100.00;101612.91;5006320;28;20072;-63
2023/09/03 04:36:00;;;;;;;6.82;6.13;;;;;;;15.08;100.00;101618.00;5028489;28;20050;-60
2023/09/03 04:38:28;;;;;;;7.28;6.20;;;;;;;15.06;100.00;101610.16;5021667;28;20053;-61
2023/09/03 04:40:56;;;;;;;12.02;7.03;;;;;;;15.04;100.00;101612.06;5035603;28;20049;-61
2023/09/03 04:43:23;;;;;;;8.95;5.88;;;;;;;15.04;100.00;101608.53;5030153;28;20379;-60
2023/09/03 04:45:52;;;;;;;6.93;6.22;;;;;;;15.03;100.00;101610.31;5031310;28;20132;-62
2023/09/03 04:48:20;;;;;;;7.90;6.22;;;;;;;15.04;100.00;101611.19;5030002;28;20055;-61
2023/09/03 04:50:49;;;;;;;9.00;5.75;;;;;;;15.04;100.00;101608.53;5021036;28;20046;-61
2023/09/03 04:53:16;;;;;;;8.35;5.72;;;;;;;15.03;100.00;101612.13;5026156;28;20169;-59
2023/09/03 04:55:43;;;;;;;11.32;6.15;;;;;;;14.97;100.00;101618.69;5037107;28;20088;-60
2023/09/03 04:58:10;;;;;;;7.18;5.95;;;;;;;14.98;100.00;101628.31;5004836;28;20054;-59
2023/09/03 05:00:38;;;;;;;8.82;5.22;;;;;;;14.98;100.00;101646.03;5030454;28;20231;-60
2023/09/03 05:03:05;;;;;;;9.75;5.65;;;;;;;14.98;100.00;101656.66;5034935;28;20135;-60
2023/09/03 05:05:42;;;;;;;6.80;5.20;;;;;;;15.00;100.00;101660.06;5039535;28;20136;-60
2023/09/03 05:08:09;;;;;;;7.80;5.50;;;;;;;14.98;100.00;101664.59;5028096;28;20140;-60
2023/09/03 05:10:40;;;;;;;6.30;4.72;;;;;;;14.99;100.00;101674.25;5027050;28;20086;-60
2023/09/03 05:13:07;;;;;;;7.20;5.43;;;;;;;14.96;100.00;101677.97;5025325;28;20052;-59
2023/09/03 05:15:36;;;;;;;8.82;5.63;;;;;;;14.93;100.00;101670.19;5035540;28;20053;-59
2023/09/03 05:18:04;;;;;;;8.95;6.03;;;;;;;14.97;100.00;101684.97;5032011;28;20061;-61
2023/09/03 05:20:32;;;;;;;6.80;5.70;;;;;;;14.98;100.00;101676.06;5030674;28;20050;-61
2023/09/03 05:22:59;;;;;;;10.65;5.68;;;;;;;15.03;100.00;101679.28;5036928;28;20057;-60
2023/09/03 05:25:26;;;;;;;7.45;5.60;;;;;;;15.11;100.00;101666.41;5031154;28;20747;-60
2023/09/03 05:27:53;;;;;;;6.40;4.95;;;;;;;15.17;100.00;101662.50;5033909;28;20084;-58
2023/09/03 05:30:22;;;;;;;6.13;4.93;;;;;;;15.23;100.00;101669.28;5027787;28;20144;-60
2023/09/03 05:32:49;;;;;;;8.90;5.65;;;;;;;15.26;100.00;101664.59;5020615;28;20067;-60
2023/09/03 05:35:17;;;;;;;6.35;4.43;;;;;;;15.22;100.00;101663.13;5029806;28;20053;-60
2023/09/03 05:37:45;;;;;;;8.25;5.68;;;;;;;15.21;100.00;101658.72;5028835;28;20088;-58
2023/09/03 05:40:12;;;;;;;8.55;4.70;;;;;;;15.31;100.00;101665.19;5034160;28;20140;-59
2023/09/03 05:42:40;;;;;;;6.95;4.55;;;;;;;15.35;100.00;101664.03;5032022;28;20139;-61
2023/09/03 05:45:07;;;;;;;7.90;4.63;;;;;;;15.35;100.00;101663.19;5034348;28;20110;-59
2023/09/03 05:47:35;;;;;;;5.32;4.22;;;;;;;15.38;100.00;101663.00;5028254;28;20488;-61
2023/09/03 05:50:02;;;;;;;7.78;4.82;;;;;;;15.38;100.00;101673.59;5030914;28;20140;-60
2023/09/03 05:52:29;;;;;;;8.65;4.70;;;;;;;15.42;100.00;101681.28;5034723;28;20057;-59
2023/09/03 05:54:57;;;;;;;6.32;4.60;;;;;;;15.44;100.00;101697.09;5033969;28;20133;-60
2023/09/03 05:57:24;;;;;;;5.93;4.47;;;;;;;15.43;100.00;101716.63;5037037;28;20128;-60
2023/09/03 05:59:51;;;;;;;6.38;4.22;;;;;;;15.34;100.00;101746.38;5029653;28;20137;-60
2023/09/03 06:02:19;;;;;;;9.75;5.00;;;;;;;15.37;100.00;101754.16;5017087;28;20517;-60
2023/09/03 06:04:46;;;;;;;10.60;4.53;;;;;;;15.38;100.00;101754.06;5027399;28;20055;-61
2023/09/03 06:07:13;;;;;;;7.47;4.20;;;;;;;15.48;100.00;101743.72;5037920;28;20700;-58
2023/09/03 06:09:41;;;;;;;9.55;4.30;;;;;;;15.63;100.00;101749.91;5035087;28;20136;-60
2023/09/03 06:12:08;;;;;;;7.22;4.32;;;;;;;15.73;100.00;101763.50;5030708;28;20111;-61
2023/09/03 06:14:35;;;;;;;8.00;4.03;;;;;;;15.79;100.00;101763.09;5036423;28;20478;-60
2023/09/03 06:17:07;;;;;;;7.18;4.30;;;;;;;15.84;100.00;101774.28;5027595;28;20144;-61
2023/09/03 06:19:34;;;;;;;5.05;3.45;;;;;;;15.99;100.00;101772.47;5026739;28;20070;-61
2023/09/03 06:22:01;;;;;;;7.70;3.92;;;;;;;16.19;100.00;101766.72;5031040;28;20420;-60
2023/09/03 06:24:28;;;;;;;12.85;3.90;;;;;;;16.44;100.00;101768.66;5029479;28;20454;-60
2023/09/03 06:26:57;;;;;;;9.88;3.80;;;;;;;16.59;100.00;101767.66;5052850;22;20095;-86
2023/09/03 06:29:25;;;;;;;6.43;2.95;;;;;;;16.46;100.00;101749.00;5020028;28;20057;-86
2023/09/03 06:31:53;;;;;;;4.47;3.20;;;;;;;16.39;100.00;101742.38;5045326;28;20522;-84
2023/09/03 06:34:22;;;;;;;8.65;3.30;;;;;;;16.46;100.00;101740.16;5024226;28;20098;-85
2023/09/03 06:36:49;;;;;;;7.07;3.58;;;;;;;16.39;100.00;101753.03;5023263;28;20049;-84
2023/09/03 06:39:18;;;;;;;13.55;3.63;;;;;;;16.34;100.00;101754.25;5014729;28;20045;-85
2023/09/03 06:41:48;;;;;;;5.00;2.90;;;;;;;16.29;100.00;101751.03;5032032;28;20033;-88
2023/09/03 06:44:21;;;;;;;5.95;3.10;;;;;;;16.33;100.00;101744.59;5032909;28;20048;-86
2023/09/03 06:46:56;;;;;;;7.93;3.05;;;;;;;16.47;100.00;101744.53;5018192;28;20050;-82
2023/09/03 06:49:31;;;;;;;10.77;3.05;;;;;;;16.44;100.00;101750.06;5035522;28;20037;-85
2023/09/03 06:51:59;;;;;;;5.32;2.42;;;;;;;16.49;98.82;101755.91;5035462;28;20060;-82
2023/09/03 06:54:28;;;;;;;11.85;3.85;;;;;;;16.50;99.50;101762.09;5039041;28;20065;-84
2023/09/03 06:56:55;;;;;;;4.50;2.70;;;;;;;16.74;98.19;101768.47;5005447;28;20050;-84
2023/09/03 06:59:23;;;;;;;4.55;2.95;;;;;;;16.68;96.69;101772.34;5018649;28;20109;-84
2023/09/03 07:02:01;;;;;;;8.25;3.30;;;;;;;16.77;95.63;101794.00;5034764;28;20049;-84
2023/09/03 07:04:29;;;;;;;7.47;2.95;;;;;;;16.60;96.74;101801.25;5030117;28;20041;-84
2023/09/03 07:11:26;;;;;;;6.65;2.75;;;;;;;17.11;93.23;101814.75;5050093;28;20103;-85
2023/09/03 07:13:55;;;;;;;6.32;2.60;;;;;;;17.22;91.77;101822.00;5022342;28;20026;-83
2023/09/03 07:16:25;;;;;;;6.20;2.47;;;;;;;17.18;91.51;101823.16;5044574;28;20136;-84
2023/09/03 07:18:53;;;;;;;5.63;2.30;;;;;;;16.90;90.61;101809.03;5018379;28;20061;-83
2023/09/03 07:34:40;;;;;;;11.73;2.65;;;;;;;16.92;90.59;101827.56;5033894;28;20164;-86
2023/09/03 07:37:08;;;;;;;7.50;2.55;;;;;;;16.99;90.19;101818.22;5011662;28;20062;-85
2023/09/03 07:39:35;;;;;;;5.45;2.42;;;;;;;17.01;88.76;101823.44;4993430;28;20057;-85
2023/09/03 07:42:04;;;;;;;6.53;2.40;;;;;;;17.17;89.41;101829.44;5029167;28;20046;-84
2023/09/03 07:44:32;;;;;;;7.72;2.30;;;;;;;17.04;88.62;101828.56;5018801;28;20062;-84
2023/09/03 07:46:59;;;;;;;7.88;3.00;;;;;;;17.25;86.06;101831.59;5032504;28;20034;-84
2023/09/03 07:49:28;;;;;;;4.60;1.77;;;;;;;17.32;86.77;101830.19;5027806;28;20053;-84
2023/09/03 07:51:55;;;;;;;7.38;2.10;;;;;;;17.53;85.34;101833.22;5044828;28;20048;-84
2023/09/03 07:54:23;;;;;;;5.38;2.20;;;;;;;17.60;83.60;101835.31;5016470;28;20045;-84
2023/09/03 07:56:54;;;;;;;5.68;1.85;;;;;;;17.79;82.52;101839.44;5018488;28;20084;-86
2023/09/03 07:59:22;;;;;;;3.55;2.00;;;;;;;17.56;82.57;101847.16;5022868;28;20017;-83
2023/09/03 08:01:53;;;;;;;4.65;1.55;;;;;;;17.63;82.72;101845.78;5024150;28;20434;-86
2023/09/03 08:04:24;;;;;;;3.85;1.90;;;;;;;18.06;81.05;101855.28;5002483;28;20073;-82
2023/09/03 08:06:51;;;;;;;5.57;2.20;;;;;;;17.88;80.13;101860.94;5019776;28;20061;-84
2023/09/03 08:09:23;;;;;;;3.50;1.60;;;;;;;17.99;79.49;101854.00;5020965;28;20053;-85
2023/09/03 08:11:53;;;;;;;5.55;1.85;;;;;;;18.25;78.16;101861.00;5038774;28;20150;-85
2023/09/03 08:14:24;;;;;;;4.40;1.95;;;;;;;18.25;77.44;101870.81;5019881;28;20060;-85
2023/09/03 08:16:52;;;;;;;8.05;2.25;;;;;;;18.26;77.47;101869.84;5018074;28;20050;-86
2023/09/03 08:19:21;;;;;;;3.90;1.40;;;;;;;18.29;77.05;101877.63;5034065;28;20049;-87
2023/09/03 08:22:03;;;;;;;7.25;2.83;;;;;;;18.46;75.39;101869.22;4999522;28;20153;-85
2023/09/03 08:24:30;;;;;;;5.70;1.40;;;;;;;18.60;75.45;101866.44;5025855;28;20121;-86
2023/09/03 08:27:01;;;;;;;7.68;2.33;;;;;;;18.29;75.06;101861.63;5006010;28;20128;-84
2023/09/03 08:29:40;;;;;;;5.20;1.85;;;;;;;18.21;74.65;101849.69;5040997;28;20072;-86
2023/09/03 08:32:11;;;;;;;10.00;2.65;;;;;;;18.39;73.92;101860.00;5003065;28;20048;-84
2023/09/03 08:34:44;;;;;;;4.45;1.80;;;;;;;18.46;73.24;101861.25;5023392;28;20068;-86
2023/09/03 08:37:15;;;;;;;6.93;2.22;;;;;;;18.57;73.20;101850.66;5015024;28;20041;-86
2023/09/03 08:39:46;;;;;;;3.65;1.95;;;;;;;18.96;72.90;101852.22;5019002;28;20141;-85
2023/09/03 08:42:16;;;;;;;4.82;2.00;;;;;;;19.37;70.72;101858.06;5032175;28;20048;-85
2023/09/03 08:45:05;;;;;;;4.72;1.85;;;;;;;19.61;69.44;101858.03;5032355;28;20042;-83
2023/09/03 08:47:55;;;;;;;7.07;2.15;;;;;;;19.70;67.82;101863.50;5004157;28;20072;-85
2023/09/03 08:50:26;;;;;;;5.95;2.75;;;;;;;19.57;67.88;101854.72;5018103;28;20026;-85
2023/09/03 08:52:58;;;;;;;8.25;2.95;;;;;;;19.16;68.90;101848.06;5018260;28;20033;-84
2023/09/03 08:55:29;;;;;;;3.92;2.40;;;;;;;18.88;70.53;101856.44;5032512;28;20096;-85
2023/09/03 08:58:28;;;;;;;10.25;2.28;;;;;;;18.56;70.56;101854.28;5030442;28;20783;-84
2023/09/03 09:01:02;;;;;;;8.77;2.97;;;;;;;18.78;70.32;101844.72;5031464;28;20049;-85
2023/09/03 09:03:30;;;;;;;8.63;2.58;;;;;;;19.08;67.58;101845.09;5000752;28;20071;-86
2023/09/03 09:06:13;;;;;;;5.50;2.00;;;;;;;19.29;67.79;101844.44;5012311;28;20344;-86
2023/09/03 09:08:43;;;;;;;2.95;2.03;;;;;;;19.83;65.79;101842.03;5000183;28;20069;-85
2023/09/03 09:11:14;;;;;;;5.68;1.45;;;;;;;19.90;63.49;101856.63;5021581;28;20029;-86
2023/09/03 09:13:52;;;;;;;3.35;1.15;;;;;;;19.59;61.98;101860.78;5004171;28;20053;-86
2023/09/03 09:16:28;;;;;;;4.30;1.60;;;;;;;19.41;61.76;101859.53;5017843;28;20068;-85
2023/09/03 09:19:17;;;;;;;3.45;1.35;;;;;;;19.68;61.45;101843.25;5017328;28;20049;-86
2023/09/03 09:21:45;;;;;;;2.42;1.35;;;;;;;20.11;60.96;101845.19;4997899;28;20057;-85
2023/09/03 09:24:16;;;;;;;5.88;1.58;;;;;;;20.24;60.68;101853.91;5030777;28;20041;-86
2023/09/03 09:26:54;;;;;;;10.93;1.35;;;;;;;20.56;60.18;101847.81;5025370;28;20033;-86
2023/09/03 09:29:28;;;;;;;5.60;1.20;;;;;;;20.67;60.79;101858.50;5017396;28;20081;-86
2023/09/03 09:32:17;;;;;;;4.25;1.33;;;;;;;21.03;59.59;101857.28;5031294;28;20471;-85
2023/09/03 09:34:47;;;;;;;2.25;1.08;;;;;;;20.48;59.19;101864.47;5010010;28;20069;-86
2023/09/03 09:37:18;;;;;;;4.45;1.50;;;;;;;20.54;59.88;101858.66;5058709;28;20022;-84
2023/09/03 09:40:09;;;;;;;3.70;1.38;;;;;;;20.55;60.58;101872.88;5033953;28;20129;-85
2023/09/03 09:43:06;;;;;;;4.72;1.60;;;;;;;20.53;59.08;101870.31;5038112;28;20038;-85
2023/09/03 09:45:48;;;;;;;6.00;1.20;;;;;;;20.44;59.35;101869.22;5041079;28;20486;-84
2023/09/03 09:48:21;;;;;;;5.40;1.40;;;;;;;20.23;59.74;101871.78;5027622;28;20041;-87
2023/09/03 09:50:51;;;;;;;4.75;1.40;;;;;;;19.99;60.18;101868.38;5025812;28;20045;-85
2023/09/03 09:53:24;;;;;;;2.33;1.35;;;;;;;20.43;58.55;101872.00;5029576;28;20068;-86
2023/09/03 09:56:02;;;;;;;3.90;1.75;;;;;;;20.74;58.26;101865.88;5001856;28;20070;-85
2023/09/03 09:58:36;;;;;;;4.18;1.30;;;;;;;20.32;59.21;101870.19;5014642;28;20030;-84
2023/09/03 10:01:08;;;;;;;4.35;1.45;;;;;;;20.52;58.71;101882.00;5035340;28;20044;-84
2023/09/03 10:03:59;;;;;;;4.28;1.30;;;;;;;20.43;57.15;101870.19;5037116;28;20132;-85
2023/09/03 10:06:32;;;;;;;3.05;1.10;;;;;;;20.73;54.51;101861.50;5012592;28;20065;-85
2023/09/03 10:09:23;;;;;;;5.53;1.63;;;;;;;20.68;55.79;101846.81;5020476;28;20036;-86
2023/09/03 10:11:57;;;;;;;2.78;1.75;;;;;;;20.87;55.47;101862.19;5024643;28;20080;-85
2023/09/03 10:14:25;;;;;;;3.40;1.00;;;;;;;20.84;54.90;101857.94;5031864;28;20113;-84
2023/09/03 10:16:57;;;;;;;3.70;1.63;;;;;;;21.22;54.41;101870.81;5017050;28;20537;-85
2023/09/03 10:19:27;;;;;;;3.10;1.40;;;;;;;20.91;55.18;101866.31;5009123;28;20065;-85
2023/09/03 10:21:59;;;;;;;4.68;1.60;;;;;;;21.51;56.18;101862.16;5005289;28;20099;-85
2023/09/03 10:24:27;;;;;;;8.02;2.55;;;;;;;21.32;53.84;101859.34;5048996;28;20038;-84
2023/09/03 10:26:57;;;;;;;7.25;1.27;;;;;;;21.89;53.70;101866.91;5033621;28;20045;-85
2023/09/03 10:29:29;;;;;;;3.08;1.60;;;;;;;22.27;53.29;101860.00;5042434;28;20026;-85
2023/09/03 10:31:58;;;;;;;3.47;1.38;;;;;;;22.13;52.90;101871.13;5018066;28;20263;-85
2023/09/03 10:34:26;;;;;;;4.20;1.38;;;;;;;22.28;53.46;101871.59;5023346;28;20072;-84
2023/09/03 10:37:13;;;;;;;2.92;1.27;;;;;;;22.16;51.93;101884.28;5031146;28;20029;-83
2023/09/03 10:39:43;;;;;;;3.13;1.73;;;;;;;21.58;51.82;101879.41;5037241;28;20098;-83
2023/09/03 10:42:29;;;;;;;2.58;1.63;;;;;;;21.61;52.57;101887.16;5029366;28;20067;-83
2023/09/03 10:44:58;;;;;;;2.92;1.20;;;;;;;22.17;51.42;101891.31;5024114;28;20687;-84
2023/09/03 10:47:27;;;;;;;4.28;1.95;;;;;;;22.56;51.08;101884.25;5025208;28;20151;-84
2023/09/03 10:49:55;;;;;;;2.90;1.30;;;;;;;23.09;51.40;101881.22;5021476;28;20091;-83
2023/09/03 10:52:30;;;;;;;4.55;2.08;;;;;;;23.60;48.69;101890.81;5008580;28;20052;-83
2023/09/03 10:55:21;;;;;;;3.05;1.40;;;;;;;23.67;46.66;101875.78;5018509;28;20380;-83
2023/09/03 10:58:08;;;;;;;3.05;1.35;;;;;;;23.34;47.83;101878.97;5035344;28;20067;-84
2023/09/03 11:00:36;;;;;;;3.13;1.45;;;;;;;23.29;48.02;101884.75;5026167;22;20108;-61
2023/09/03 11:03:15;;;;;;;3.58;1.40;;;;;;;23.25;47.94;101886.88;4995094;28;20534;-62
2023/09/03 11:06:16;;;;;;;1.85;1.20;;;;;;;22.17;51.19;101894.84;4991857;28;20089;-61
2023/09/03 11:08:43;;;;;;;4.20;1.58;;;;;;;23.08;49.79;101895.63;4993955;28;20406;-62
2023/09/03 11:11:11;;;;;;;3.90;1.30;;;;;;;23.22;48.68;101899.75;4989898;28;21858;-61
2023/09/03 11:13:38;;;;;;;3.97;1.35;;;;;;;23.12;48.64;101896.22;4995456;28;20590;-58
2023/09/03 11:16:06;;;;;;;5.45;1.45;;;;;;;22.89;49.62;101900.97;4994946;28;20483;-61
2023/09/03 11:18:33;;;;;;;3.72;1.52;;;;;;;23.07;49.21;101899.31;4997459;28;20435;-62
2023/09/03 11:21:01;;;;;;;3.75;1.70;;;;;;;23.36;48.90;101903.81;4997265;28;20060;-61
2023/09/03 11:23:30;;;;;;;2.80;1.55;;;;;;;23.81;46.41;101903.22;4992962;28;20041;-60
2023/09/03 11:26:03;;;;;;;3.33;1.65;;;;;;;23.89;46.20;101908.72;4990105;28;21053;-63
2023/09/03 11:28:37;;;;;;;2.53;1.30;;;;;;;23.70;46.91;101910.47;4993898;28;20050;-60
2023/09/03 11:31:04;;;;;;;2.45;1.10;;;;;;;23.90;46.74;101907.72;4996348;28;20058;-61
2023/09/03 11:33:32;;;;;;;6.40;1.55;;;;;;;23.95;47.55;101908.13;4999511;28;20121;-62
2023/09/03 11:36:03;;;;;;;3.58;1.30;;;;;;;24.53;45.93;101901.69;4996672;28;20069;-61
2023/09/03 11:38:32;;;;;;;3.80;1.27;;;;;;;25.03;44.55;101912.81;4997291;28;20054;-63
2023/09/03 11:40:59;;;;;;;3.42;1.30;;;;;;;24.78;44.34;101911.72;4997338;28;20092;-61
2023/09/03 11:43:29;;;;;;;2.35;1.25;;;;;;;24.62;42.95;101923.16;4997408;28;20053;-63
2023/09/03 11:45:57;;;;;;;2.50;1.30;;;;;;;24.30;43.42;101925.41;4998103;28;20431;-62
2023/09/03 11:48:29;;;;;;;2.80;1.20;;;;;;;24.01;44.64;101926.38;4996385;28;20112;-61
2023/09/03 11:50:57;;;;;;;3.22;1.63;;;;;;;23.92;45.20;101932.66;4994287;28;20064;-59